Time;durP1;ratioP1;P1;durP2;ratioP2;P2;SDS_P1;SDS_P2;PMS_P1;PMS_P2;Temp;Humidity;BMP_temperature;BMP_pressure;BME280_temperature;BME280_humidity;BME280_pressure;Samples;Min_cycle;Max_cycle;Signal;HPM_P1;HPM_P2
2024/01/12 00:02:00;;;;;;;2.73;1.17;;;;;;;-11.90;67.76;98780.88;4911257;29;20498;-71
2024/01/12 00:04:33;;;;;;;3.43;1.33;;;;;;;-12.07;67.63;98753.91;4911585;29;20040;-72
2024/01/12 00:07:00;;;;;;;3.87;1.40;;;;;;;-12.00;67.53;98774.44;4900414;29;20302;-72
2024/01/12 00:09:26;;;;;;;2.30;1.20;;;;;;;-12.26;67.11;98746.06;4898744;29;20079;-72
2024/01/12 00:11:55;;;;;;;2.13;1.10;;;;;;;-12.23;67.59;98760.41;4914341;29;20040;-74
2024/01/12 00:14:21;;;;;;;3.93;1.57;;;;;;;-12.14;67.46;98776.06;4925440;29;20047;-73
2024/01/12 00:16:49;;;;;;;3.30;0.90;;;;;;;-12.11;67.13;98786.31;4915901;29;20040;-72
2024/01/12 00:19:19;;;;;;;3.17;1.40;;;;;;;-12.08;67.86;98784.78;4914320;29;20466;-72
2024/01/12 00:21:46;;;;;;;2.87;1.17;;;;;;;-12.25;67.79;98751.97;4904232;29;20036;-71
2024/01/12 00:24:12;;;;;;;3.07;1.50;;;;;;;-12.11;67.48;98791.34;4912925;29;20051;-71
2024/01/12 00:26:41;;;;;;;3.50;1.30;;;;;;;-11.23;69.28;98777.44;4911464;29;20481;-71
2024/01/12 00:29:10;;;;;;;2.97;1.27;;;;;;;-10.80;73.90;98772.47;4895969;29;20045;-72
2024/01/12 00:31:39;;;;;;;2.70;1.30;;;;;;;-11.17;67.75;98794.56;4881895;29;20045;-72
2024/01/12 00:34:06;;;;;;;1.90;1.00;;;;;;;-11.63;66.56;98798.47;4894516;29;20528;-72
2024/01/12 00:36:31;;;;;;;3.23;0.97;;;;;;;-12.03;66.99;98780.94;4901620;29;20152;-72
2024/01/12 00:38:58;;;;;;;1.97;1.03;;;;;;;-12.06;67.26;98763.16;4912695;29;20072;-73
2024/01/12 00:41:26;;;;;;;2.53;1.00;;;;;;;-12.00;66.60;98802.06;4915748;29;20107;-70
2024/01/12 00:43:55;;;;;;;1.97;0.87;;;;;;;-12.31;67.29;98766.59;4916292;29;20043;-71
2024/01/12 00:46:21;;;;;;;3.33;1.10;;;;;;;-12.33;66.52;98784.03;4909128;29;20043;-72
2024/01/12 00:48:58;;;;;;;3.83;1.20;;;;;;;-12.32;66.74;98772.38;4903463;29;20134;-72
2024/01/12 00:51:26;;;;;;;1.93;0.67;;;;;;;-12.36;66.80;98777.97;4916214;29;20043;-70
2024/01/12 00:53:55;;;;;;;4.13;1.43;;;;;;;-12.45;66.37;98783.25;4920637;29;20111;-73
2024/01/12 00:56:24;;;;;;;2.30;1.23;;;;;;;-12.59;66.94;98753.13;4919175;29;20088;-73
2024/01/12 00:58:50;;;;;;;1.73;1.03;;;;;;;-12.53;67.31;98770.22;4920051;29;20047;-73
2024/01/12 01:01:17;;;;;;;1.67;1.07;;;;;;;-12.98;66.86;98706.25;4905398;29;20474;-72
2024/01/12 01:03:43;;;;;;;6.67;1.07;;;;;;;-12.42;66.66;98801.00;4916646;29;20047;-71
2024/01/12 01:06:09;;;;;;;2.33;1.20;;;;;;;-12.44;67.08;98810.91;4906276;29;20413;-72
2024/01/12 01:08:37;;;;;;;3.27;1.13;;;;;;;-12.39;67.10;98807.84;4918128;29;20051;-72
2024/01/12 01:11:05;;;;;;;4.83;2.00;;;;;;;-12.30;66.94;98809.31;4903959;29;20048;-73
2024/01/12 01:13:36;;;;;;;2.77;1.30;;;;;;;-12.30;66.44;98823.53;4918698;29;20048;-75
2024/01/12 01:16:06;;;;;;;2.60;1.20;;;;;;;-12.62;66.99;98752.94;4919531;29;20043;-74
2024/01/12 01:18:33;;;;;;;2.43;1.10;;;;;;;-12.54;66.61;98781.00;4921805;29;20466;-74
2024/01/12 01:21:02;;;;;;;2.50;1.17;;;;;;;-12.44;67.16;98808.41;4934956;29;20066;-75
2024/01/12 01:23:28;;;;;;;1.73;1.00;;;;;;;-12.30;66.99;98809.31;4932836;29;20051;-75
2024/01/12 01:25:54;;;;;;;5.23;1.37;;;;;;;-12.28;67.64;98809.44;4935883;29;20067;-74
2024/01/12 01:28:23;;;;;;;4.63;1.27;;;;;;;-12.49;67.05;98769.66;4919753;29;20103;-76
2024/01/12 01:30:57;;;;;;;6.17;2.00;;;;;;;-12.41;66.98;98788.56;4905933;29;20134;-75
2024/01/12 01:33:29;;;;;;;4.93;1.27;;;;;;;-12.26;67.61;98798.72;4908074;29;20058;-74
2024/01/12 01:35:55;;;;;;;3.80;1.70;;;;;;;-12.17;66.95;98795.09;4907138;29;20151;-75
2024/01/12 01:38:26;;;;;;;3.20;1.30;;;;;;;-12.14;66.92;98793.63;4915920;29;20075;-74
2024/01/12 01:40:53;;;;;;;2.60;1.40;;;;;;;-12.14;67.29;98790.28;4918880;29;20043;-75
2024/01/12 01:43:22;;;;;;;1.77;0.90;;;;;;;-12.08;66.59;98794.81;4901917;29;20518;-73
2024/01/12 01:45:48;;;;;;;4.73;1.10;;;;;;;-12.01;66.95;98817.88;4901561;29;20415;-74
2024/01/12 01:48:16;;;;;;;2.80;1.20;;;;;;;-12.18;67.02;98769.13;4919080;29;20521;-75
2024/01/12 01:50:43;;;;;;;2.67;1.20;;;;;;;-12.27;66.25;98758.50;4917865;29;20167;-74
2024/01/12 01:53:11;;;;;;;3.83;1.10;;;;;;;-11.96;66.73;98815.63;4881001;29;20051;-74
2024/01/12 01:55:38;;;;;;;2.63;1.20;;;;;;;-11.94;66.92;98814.09;4916912;29;20043;-70
2024/01/12 01:58:07;;;;;;;1.87;1.20;;;;;;;-12.04;66.87;98802.63;4918136;29;20048;-72
2024/01/12 02:00:34;;;;;;;2.80;1.07;;;;;;;-11.91;66.84;98819.31;4914969;29;20037;-71
2024/01/12 02:03:02;;;;;;;3.70;1.53;;;;;;;-11.96;66.89;98803.06;4911277;29;20090;-73
2024/01/12 02:05:35;;;;;;;2.47;1.42;;;;;;;-12.08;66.43;98775.59;4902338;29;20111;-73
2024/01/12 02:08:05;;;;;;;3.73;1.13;;;;;;;-11.96;66.85;98801.47;4914528;29;20044;-72
2024/01/12 02:10:34;;;;;;;5.03;1.13;;;;;;;-11.84;66.82;98813.03;4914201;29;20059;-72
2024/01/12 02:13:01;;;;;;;5.83;1.20;;;;;;;-11.81;66.78;98816.63;4913091;29;20063;-72
2024/01/12 02:15:27;;;;;;;2.87;0.93;;;;;;;-11.99;67.07;98785.34;4914118;29;20115;-71
2024/01/12 02:17:56;;;;;;;3.93;1.50;;;;;;;-12.01;66.03;98794.41;4915653;29;20115;-72
2024/01/12 02:20:22;;;;;;;1.97;0.90;;;;;;;-12.14;66.41;98781.09;4898050;29;20122;-72
2024/01/12 02:22:48;;;;;;;3.07;1.20;;;;;;;-12.29;66.83;98734.97;4914301;29;20051;-72
2024/01/12 02:25:17;;;;;;;2.27;1.03;;;;;;;-12.06;67.01;98759.00;4913603;29;20131;-72
2024/01/12 02:27:44;;;;;;;4.67;0.83;;;;;;;-11.80;66.80;98778.19;4901702;29;20036;-72
2024/01/12 02:30:10;;;;;;;4.33;1.37;;;;;;;-11.57;66.86;98818.94;4897359;29;20131;-71
2024/01/12 02:32:45;;;;;;;4.87;1.30;;;;;;;-11.52;66.60;98824.25;4898438;29;20054;-72
2024/01/12 02:35:11;;;;;;;2.47;0.98;;;;;;;-11.81;66.61;98750.47;4915401;29;20105;-72
2024/01/12 02:37:37;;;;;;;1.87;1.03;;;;;;;-11.39;67.37;98796.59;4913849;29;20040;-71
2024/01/12 02:40:06;;;;;;;2.73;1.03;;;;;;;-11.61;66.85;98754.25;4915266;29;20451;-71
2024/01/12 02:42:35;;;;;;;1.60;1.07;;;;;;;-11.40;66.30;98792.34;4899206;29;20089;-71
2024/01/12 02:45:04;;;;;;;2.43;1.07;;;;;;;-11.43;66.23;98808.88;4915973;29;20040;-71
2024/01/12 02:47:31;;;;;;;2.43;0.80;;;;;;;-11.54;66.66;98790.66;4912772;29;20047;-72
2024/01/12 02:49:57;;;;;;;2.87;1.00;;;;;;;-11.64;66.56;98784.19;4915436;29;20048;-77
2024/01/12 02:52:35;;;;;;;4.53;1.67;;;;;;;-11.71;66.51;98772.00;4900707;29;20040;-77
2024/01/12 02:55:03;;;;;;;3.80;1.33;;;;;;;-11.73;66.39;98778.56;4900179;29;20053;-76
2024/01/12 02:57:36;;;;;;;2.90;1.30;;;;;;;-12.14;66.24;98710.84;4901103;29;20151;-78
2024/01/12 03:00:05;;;;;;;3.40;1.20;;;;;;;-11.45;66.48;98806.25;4916835;29;20055;-75
2024/01/12 03:02:41;;;;;;;3.37;1.20;;;;;;;-12.04;66.96;98732.38;4911997;29;20048;-73
2024/01/12 03:05:07;;;;;;;4.07;1.10;;;;;;;-11.71;65.64;98792.97;4903052;29;20053;-71
2024/01/12 03:07:37;;;;;;;3.27;0.87;;;;;;;-11.57;66.97;98810.53;4915121;29;20175;-71
2024/01/12 03:10:05;;;;;;;2.63;1.07;;;;;;;-11.59;67.17;98815.47;4915040;29;20091;-71
2024/01/12 03:12:31;;;;;;;5.43;1.00;;;;;;;-12.03;67.21;98724.06;4885358;29;20059;-72
2024/01/12 03:14:57;;;;;;;3.00;1.20;;;;;;;-11.68;66.90;98772.19;4882168;29;20153;-71
2024/01/12 03:17:25;;;;;;;2.13;1.03;;;;;;;-11.52;67.32;98806.69;4914049;29;20138;-72
2024/01/12 03:19:51;;;;;;;7.60;1.33;;;;;;;-11.52;67.33;98789.97;4913805;29;20089;-71
2024/01/12 03:22:17;;;;;;;3.60;2.10;;;;;;;-11.56;67.06;98777.97;4900553;29;20043;-72
2024/01/12 03:24:46;;;;;;;3.63;2.00;;;;;;;-11.71;66.80;98752.81;4912511;29;20044;-71
2024/01/12 03:27:13;;;;;;;3.17;1.33;;;;;;;-11.80;67.29;98730.47;4897188;29;20036;-73
2024/01/12 03:29:39;;;;;;;5.63;1.83;;;;;;;-11.41;66.60;98780.56;4912567;29;20044;-71
2024/01/12 03:32:08;;;;;;;3.50;1.50;;;;;;;-11.69;67.01;98740.34;4912885;29;20519;-71
2024/01/12 03:34:37;;;;;;;3.57;1.37;;;;;;;-11.31;67.26;98784.50;4915719;29;20512;-70
2024/01/12 03:37:05;;;;;;;2.25;1.25;;;;;;;-11.67;67.26;98678.53;4869732;29;20040;-71
2024/01/12 03:39:34;;;;;;;4.07;1.23;;;;;;;-11.58;67.69;98684.09;4913321;29;20040;-71
2024/01/12 03:42:00;;;;;;;5.43;1.40;;;;;;;-11.43;67.41;98679.16;4900021;29;20143;-71
2024/01/12 03:44:39;;;;;;;4.50;1.25;;;;;;;-11.36;67.11;98666.19;4896957;29;20040;-71
2024/01/12 03:47:09;;;;;;;4.97;1.43;;;;;;;-10.87;67.43;98734.31;4915348;29;20039;-71
2024/01/12 03:49:35;;;;;;;2.23;1.40;;;;;;;-10.63;67.16;98728.22;4913142;29;20138;-72
2024/01/12 03:52:03;;;;;;;5.30;1.40;;;;;;;-10.24;67.22;98769.75;4903664;29;20048;-72
2024/01/12 03:54:29;;;;;;;4.83;1.33;;;;;;;-10.25;67.57;98735.31;4914549;29;20052;-74
2024/01/12 03:56:55;;;;;;;2.77;1.50;;;;;;;-10.17;66.50;98765.19;4912330;29;20058;-72
2024/01/12 03:59:21;;;;;;;6.93;1.30;;;;;;;-10.17;66.72;98746.69;4913262;29;20141;-73
2024/01/12 04:01:50;;;;;;;3.17;1.57;;;;;;;-10.18;66.73;98725.69;4915389;29;20079;-75
2024/01/12 04:04:17;;;;;;;3.83;1.30;;;;;;;-10.18;66.72;98749.97;4899055;29;20044;-74
2024/01/12 04:06:43;;;;;;;1.63;1.17;;;;;;;-9.95;67.42;98762.97;4901185;29;20059;-74
2024/01/12 04:09:15;;;;;;;2.33;1.10;;;;;;;-9.91;66.62;98788.41;4899822;29;20139;-73
2024/01/12 04:11:41;;;;;;;3.37;1.30;;;;;;;-10.06;67.05;98760.75;4897365;29;20040;-75
2024/01/12 04:14:07;;;;;;;5.57;1.17;;;;;;;-9.88;67.15;98775.16;4913773;29;20059;-75
2024/01/12 04:16:36;;;;;;;5.97;1.50;;;;;;;-10.43;67.26;98685.72;4916154;29;20040;-72
2024/01/12 04:19:02;;;;;;;3.88;1.30;;;;;;;-9.71;67.22;98781.13;4911559;29;20060;-73
2024/01/12 04:21:28;;;;;;;4.07;1.38;;;;;;;-9.68;67.52;98769.56;4911680;29;20582;-73
2024/01/12 04:23:57;;;;;;;2.40;1.30;;;;;;;-9.88;67.16;98719.75;4915354;29;20068;-72
2024/01/12 04:26:23;;;;;;;4.40;1.20;;;;;;;-10.09;66.81;98701.81;4896412;29;20550;-73
2024/01/12 04:28:53;;;;;;;4.17;1.43;;;;;;;-9.75;66.60;98766.63;4901874;29;20052;-74
2024/01/12 04:31:19;;;;;;;2.73;1.23;;;;;;;-9.85;66.99;98740.91;4913305;29;20041;-73
2024/01/12 04:33:48;;;;;;;3.53;1.27;;;;;;;-9.70;66.99;98773.63;4898412;29;20052;-71
2024/01/12 04:36:14;;;;;;;5.30;1.40;;;;;;;-9.57;66.34;98786.88;4914438;29;20063;-71
2024/01/12 04:38:43;;;;;;;2.77;1.17;;;;;;;-9.70;66.68;98766.09;4899821;29;20503;-71
2024/01/12 04:41:09;;;;;;;2.22;1.10;;;;;;;-9.48;66.68;98777.31;4907917;29;20040;-72
2024/01/12 04:43:39;;;;;;;2.28;1.00;;;;;;;-9.41;67.34;98766.81;4914943;29;20056;-72
2024/01/12 04:46:05;;;;;;;2.93;1.37;;;;;;;-9.41;67.30;98761.75;4898497;29;20059;-72
2024/01/12 04:48:40;;;;;;;7.40;1.80;;;;;;;-9.38;66.65;98769.47;4914575;29;20052;-71
2024/01/12 04:51:06;;;;;;;5.88;1.85;;;;;;;-9.66;67.18;98718.41;4894870;29;20040;-72
2024/01/12 04:53:32;;;;;;;4.63;1.58;;;;;;;-9.60;66.81;98733.84;4915326;29;20070;-70
2024/01/12 04:56:01;;;;;;;2.90;1.50;;;;;;;-9.44;66.72;98753.16;4912635;29;20093;-73
2024/01/12 04:58:27;;;;;;;6.25;1.55;;;;;;;-9.62;66.60;98727.84;4915549;29;20044;-72
2024/01/12 05:00:53;;;;;;;4.30;1.40;;;;;;;-9.68;66.63;98711.63;4913177;29;20051;-73
2024/01/12 05:03:19;;;;;;;4.55;1.50;;;;;;;-9.45;66.66;98769.94;4912328;29;20139;-72
2024/01/12 05:05:48;;;;;;;3.72;1.52;;;;;;;-9.41;67.02;98755.84;4898347;29;20430;-72
2024/01/12 05:08:17;;;;;;;4.50;1.77;;;;;;;-9.52;66.67;98732.59;4910887;29;20444;-71
2024/01/12 05:10:46;;;;;;;3.53;1.40;;;;;;;-9.76;66.55;98712.00;4910560;29;20040;-71
2024/01/12 05:13:12;;;;;;;4.00;1.30;;;;;;;-9.58;66.92;98752.41;4911908;29;20145;-72
2024/01/12 05:15:53;;;;;;;4.35;1.63;;;;;;;-9.60;67.08;98728.81;4912828;29;20048;-71
2024/01/12 05:18:22;;;;;;;5.82;2.10;;;;;;;-9.52;66.52;98725.03;4914847;29;20076;-71
2024/01/12 05:20:48;;;;;;;11.07;2.10;;;;;;;-9.41;66.52;98740.72;4915672;29;20076;-70
2024/01/12 05:23:14;;;;;;;4.43;2.15;;;;;;;-9.56;66.84;98710.53;4911054;29;20381;-71
2024/01/12 05:25:46;;;;;;;4.10;2.20;;;;;;;-9.43;66.18;98733.09;4913477;29;20144;-71
2024/01/12 05:28:12;;;;;;;5.05;1.90;;;;;;;-9.57;66.01;98723.91;4900518;29;20048;-71
2024/01/12 05:30:40;;;;;;;6.68;1.92;;;;;;;-9.86;66.66;98667.84;4911578;29;20048;-71
2024/01/12 05:33:13;;;;;;;6.25;2.05;;;;;;;-9.41;67.16;98723.97;4901228;29;20052;-71
2024/01/12 05:35:40;;;;;;;4.75;1.67;;;;;;;-9.28;66.52;98747.28;4910891;29;20059;-71
2024/01/12 05:38:07;;;;;;;5.20;1.50;;;;;;;-9.33;66.97;98733.56;4913543;29;20048;-71
2024/01/12 05:40:33;;;;;;;3.03;1.48;;;;;;;-9.21;66.87;98761.97;4930629;29;20068;-70
2024/01/12 05:43:00;;;;;;;7.57;2.05;;;;;;;-9.35;66.88;98740.19;4900053;29;20124;-72
2024/01/12 05:45:29;;;;;;;4.93;1.50;;;;;;;-9.18;66.87;98753.69;4886541;29;20139;-70
2024/01/12 05:47:55;;;;;;;5.75;1.75;;;;;;;-9.34;66.70;98722.63;4919925;29;20574;-71
2024/01/12 05:50:21;;;;;;;2.20;1.25;;;;;;;-9.33;66.99;98738.59;4897952;29;20048;-71
2024/01/12 05:52:53;;;;;;;2.03;1.48;;;;;;;-9.77;66.71;98678.38;4917823;29;20044;-71
2024/01/12 05:55:23;;;;;;;6.05;1.58;;;;;;;-9.30;66.64;98746.34;4917253;29;20051;-71
2024/01/12 05:57:52;;;;;;;2.85;1.30;;;;;;;-9.54;66.92;98702.28;4901454;29;20040;-71
2024/01/12 06:00:21;;;;;;;3.97;1.70;;;;;;;-9.34;67.12;98737.75;4914643;29;20051;-71
2024/01/12 06:02:48;;;;;;;9.43;1.40;;;;;;;-9.72;66.14;98704.69;4903309;29;20051;-71
2024/01/12 06:05:23;;;;;;;5.55;1.73;;;;;;;-9.49;66.87;98745.34;4903396;29;20050;-70
2024/01/12 06:07:49;;;;;;;4.95;1.67;;;;;;;-9.58;66.95;98714.63;4915306;29;20052;-70
2024/01/12 06:10:28;;;;;;;3.17;1.70;;;;;;;-9.58;66.67;98714.63;4914826;29;20142;-70
2024/01/12 06:13:19;;;;;;;5.40;1.58;;;;;;;-9.41;66.78;98730.66;4916898;29;20054;-70
2024/01/12 06:15:45;;;;;;;3.30;1.10;;;;;;;-9.48;67.00;98726.06;4911049;29;20103;-70
2024/01/12 06:18:10;;;;;;;1.98;1.17;;;;;;;-9.28;66.85;98759.88;4918047;29;20082;-71
2024/01/12 06:20:41;;;;;;;5.10;1.60;;;;;;;-9.76;67.08;98676.75;4916059;29;20036;-70
2024/01/12 06:23:10;;;;;;;4.00;1.42;;;;;;;-9.45;67.31;98733.78;4914859;29;20106;-72
2024/01/12 06:25:39;;;;;;;5.07;1.83;;;;;;;-9.17;67.07;98763.84;4913062;29;20039;-71
2024/01/12 06:28:06;;;;;;;3.33;1.33;;;;;;;-8.99;67.11;98765.59;4914383;29;20076;-71
2024/01/12 06:30:35;;;;;;;2.28;1.30;;;;;;;-8.93;67.34;98756.69;4915299;29;20511;-72
2024/01/12 06:33:09;;;;;;;1.92;1.10;;;;;;;-9.50;66.72;98679.78;4899382;29;20044;-72
2024/01/12 06:35:35;;;;;;;7.90;1.88;;;;;;;-8.75;67.58;98768.50;4914165;29;20051;-72
2024/01/12 06:38:10;;;;;;;3.47;1.42;;;;;;;-8.89;67.15;98732.50;4902206;29;20043;-71
2024/01/12 06:40:41;;;;;;;5.20;1.45;;;;;;;-8.88;67.46;98736.75;4912189;29;20040;-72
2024/01/12 06:43:12;;;;;;;5.95;1.85;;;;;;;-8.65;67.22;98757.22;4916219;29;20146;-72
2024/01/12 06:48:35;;;;;;;4.72;1.77;;;;;;;-8.61;67.29;98751.56;4892947;29;20037;-72
2024/01/12 06:51:11;;;;;;;3.85;1.52;;;;;;;-9.10;67.42;98644.03;4916721;29;20079;-71
2024/01/12 06:53:44;;;;;;;2.65;1.38;;;;;;;-8.27;67.64;98770.88;4915348;29;20414;-71
2024/01/12 06:56:18;;;;;;;4.18;1.42;;;;;;;-8.38;67.58;98757.72;4918217;29;20167;-70
2024/01/12 06:58:44;;;;;;;3.33;1.23;;;;;;;-8.19;67.41;98782.22;4919357;29;20087;-71
2024/01/12 07:01:20;;;;;;;7.65;1.73;;;;;;;-8.39;67.28;98748.44;4916280;29;20032;-71
2024/01/12 07:03:48;;;;;;;3.05;1.33;;;;;;;-8.33;67.45;98746.19;4917049;29;20088;-70
2024/01/12 07:06:14;;;;;;;3.60;1.35;;;;;;;-8.01;67.20;98783.91;4928666;29;20384;-72
2024/01/12 07:08:48;;;;;;;3.50;1.42;;;;;;;-8.38;67.08;98706.38;4909896;29;20047;-71
2024/01/12 07:11:17;;;;;;;6.97;1.75;;;;;;;-7.36;67.23;98759.16;4924366;29;20137;-72
2024/01/12 07:14:17;;;;;;;4.30;1.65;;;;;;;-6.17;67.54;98743.16;4913019;29;20415;-71
2024/01/12 07:16:44;;;;;;;2.22;1.27;;;;;;;-5.60;66.43;98749.59;4911532;29;20079;-72
2024/01/12 07:19:16;;;;;;;1.83;1.10;;;;;;;-6.23;65.22;98695.66;4910520;29;20075;-72
2024/01/12 07:21:42;;;;;;;2.80;1.30;;;;;;;-6.13;65.15;98782.13;4910400;29;20495;-72
2024/01/12 07:24:10;;;;;;;3.72;1.25;;;;;;;-6.55;65.00;98771.13;4895441;29;20107;-71
2024/01/12 07:26:45;;;;;;;3.17;1.50;;;;;;;-6.89;65.45;98782.34;4912871;29;20047;-73
2024/01/12 07:29:37;;;;;;;4.35;1.55;;;;;;;-6.85;65.99;98826.34;4912509;29;20158;-71
2024/01/12 07:32:06;;;;;;;5.45;1.48;;;;;;;-7.11;64.96;98826.03;4891986;29;20048;-71
2024/01/12 07:34:38;;;;;;;9.63;1.73;;;;;;;-7.60;65.08;98820.41;4911971;29;20045;-71
2024/01/12 07:37:17;;;;;;;3.95;1.95;;;;;;;-7.64;65.52;98848.88;4897750;29;20048;-69
2024/01/12 07:39:43;;;;;;;6.72;2.30;;;;;;;-7.82;65.93;98794.91;4908625;29;20040;-70
2024/01/12 07:42:18;;;;;;;5.90;1.75;;;;;;;-7.31;65.99;98828.50;4911043;29;20075;-69
2024/01/12 07:44:47;;;;;;;7.85;2.13;;;;;;;-5.94;66.17;98857.22;4903842;29;20051;-76
2024/01/12 07:47:19;;;;;;;7.13;2.22;;;;;;;-4.22;66.42;98850.22;4912132;29;20040;-71
2024/01/12 07:49:44;;;;;;;5.00;1.77;;;;;;;-2.88;65.69;98839.28;4909860;29;20044;-70
2024/01/12 07:52:14;;;;;;;3.13;1.70;;;;;;;-1.56;64.86;98814.72;4910185;29;20036;-68
2024/01/12 07:54:50;;;;;;;;;;;;;;;;;;;;;
2024/01/12 07:57:22;;;;;;;2.85;1.80;;;;;;;-0.24;61.69;98796.19;4906416;29;20044;-67
2024/01/12 07:59:55;;;;;;;8.00;2.45;;;;;;;0.77;61.82;98837.16;4908611;29;20086;-70
2024/01/12 08:02:24;;;;;;;3.78;1.70;;;;;;;0.68;61.27;98807.09;4906311;29;20456;-68
2024/01/12 08:04:59;;;;;;;2.13;1.33;;;;;;;1.40;60.83;98855.09;4905310;29;20112;-68
2024/01/12 08:07:31;;;;;;;2.35;1.70;;;;;;;1.83;60.20;98836.78;4907355;29;20040;-70
2024/01/12 08:09:57;;;;;;;3.13;1.60;;;;;;;2.41;59.52;98799.72;4908426;29;20186;-69
2024/01/12 08:12:23;;;;;;;4.43;2.00;;;;;;;3.05;59.66;98836.13;4879168;29;20043;-69
2024/01/12 08:14:49;;;;;;;3.60;1.95;;;;;;;3.35;58.69;98861.13;4894548;29;20043;-68
2024/01/12 08:17:15;;;;;;;3.28;1.70;;;;;;;2.61;58.96;98802.41;4909373;29;20036;-69
2024/01/12 08:19:41;;;;;;;3.58;1.67;;;;;;;2.11;58.04;98858.47;4907887;29;20532;-68
2024/01/12 08:22:07;;;;;;;2.92;1.50;;;;;;;1.05;56.40;98851.22;4907858;29;20411;-70
2024/01/12 08:24:33;;;;;;;3.05;1.50;;;;;;;1.25;58.73;98857.44;4893330;29;20043;-68
2024/01/12 08:27:02;;;;;;;2.80;1.52;;;;;;;1.29;57.73;98877.16;4890159;29;20134;-70
2024/01/12 08:29:51;;;;;;;3.10;1.40;;;;;;;1.61;58.03;98863.91;4907339;29;20069;-68
2024/01/12 08:32:26;;;;;;;4.28;1.80;;;;;;;1.57;57.56;98859.59;4885127;29;20430;-67
2024/01/12 08:34:52;;;;;;;4.40;1.92;;;;;;;0.86;55.73;98879.97;4891357;29;20044;-67
2024/01/12 08:37:23;;;;;;;;;;;;;;;0.42;56.57;98873.28;4908120;29;20071;-68
2024/01/12 08:39:50;;;;;;;2.17;1.50;;;;;;;0.19;54.70;98875.44;4905118;29;19958;-69
2024/01/12 08:42:19;;;;;;;3.10;1.50;;;;;;;-0.57;55.19;98871.41;4889493;29;20048;-68
2024/01/12 08:44:48;;;;;;;5.63;1.85;;;;;;;-1.52;55.30;98848.81;4879429;29;20058;-70
2024/01/12 08:47:15;;;;;;;3.50;1.50;;;;;;;-2.18;56.07;98831.03;4909884;29;20040;-72
2024/01/12 08:49:41;;;;;;;3.03;1.60;;;;;;;-2.01;57.30;98863.75;4913232;29;20055;-69
2024/01/12 08:52:07;;;;;;;2.30;1.38;;;;;;;-2.34;56.58;98860.31;4914371;29;20040;-69
2024/01/12 08:54:33;;;;;;;4.38;1.38;;;;;;;-2.83;56.83;98816.50;4888551;29;20040;-70
2024/01/12 08:56:59;;;;;;;5.25;1.60;;;;;;;-3.43;56.00;98825.72;4913786;29;20522;-68
2024/01/12 08:59:28;;;;;;;3.38;1.60;;;;;;;-2.88;57.70;98872.38;4914188;29;20047;-69
2024/01/12 09:01:57;;;;;;;2.45;1.27;;;;;;;-2.59;56.50;98900.38;4911764;29;20036;-68
2024/01/12 09:04:31;;;;;;;2.63;1.30;;;;;;;-2.13;57.23;98915.28;4917032;29;20044;-68
2024/01/12 09:07:03;;;;;;;5.18;1.40;;;;;;;-2.59;56.75;98879.16;4896052;29;20049;-68
2024/01/12 09:09:36;;;;;;;4.38;1.98;;;;;;;-1.45;57.84;98908.56;4897050;29;20048;-69
2024/01/12 09:12:04;;;;;;;2.97;1.23;;;;;;;-0.24;57.43;98918.94;4915521;29;20059;-70
2024/01/12 09:14:30;;;;;;;3.38;1.58;;;;;;;0.40;56.45;98901.41;4915378;29;20050;-69
2024/01/12 09:16:56;;;;;;;5.10;1.92;;;;;;;0.36;55.69;98896.19;4921305;29;20158;-69
2024/01/12 09:19:22;;;;;;;6.35;2.45;;;;;;;1.00;55.62;98873.34;4919308;29;20051;-71
2024/01/12 09:21:51;;;;;;;2.80;1.63;;;;;;;1.58;55.31;98900.63;4920320;29;20441;-69
2024/01/12 09:24:24;;;;;;;3.40;1.67;;;;;;;1.76;54.16;98896.59;4919893;29;20529;-69
2024/01/12 09:26:59;;;;;;;3.10;1.88;;;;;;;1.95;54.56;98895.09;4917887;29;20626;-68
2024/01/12 09:29:35;;;;;;;2.95;1.85;;;;;;;1.73;54.09;98896.56;4919003;29;20036;-70
2024/01/12 09:32:02;;;;;;;2.63;1.60;;;;;;;1.09;53.41;98841.88;4918540;29;20051;-69
2024/01/12 09:34:47;;;;;;;2.15;1.73;;;;;;;2.71;54.28;98907.00;4907266;29;20081;-69
2024/01/12 09:37:17;;;;;;;3.17;1.70;;;;;;;3.16;53.57;98888.47;4920065;29;20499;-68
2024/01/12 09:39:54;;;;;;;3.22;1.70;;;;;;;4.72;53.41;98893.31;4918946;29;20457;-70
2024/01/12 09:42:24;;;;;;;3.50;1.92;;;;;;;5.52;52.45;98896.63;4907731;29;20062;-69
2024/01/12 09:44:56;;;;;;;3.53;1.70;;;;;;;6.46;51.05;98861.78;4918177;29;20040;-71
2024/01/12 09:47:23;;;;;;;3.80;1.40;;;;;;;5.73;47.79;98869.91;4919051;29;20488;-68
2024/01/12 09:50:05;;;;;;;4.20;1.60;;;;;;;5.52;49.23;98914.69;4902841;29;20091;-69
2024/01/12 09:52:35;;;;;;;5.38;1.80;;;;;;;6.46;50.09;98918.63;4895668;29;20136;-70
2024/01/12 09:55:05;;;;;;;1.60;1.20;;;;;;;6.33;47.82;98867.00;4903332;29;20515;-68
2024/01/12 09:57:43;;;;;;;3.15;1.40;;;;;;;6.81;47.35;98891.66;4920564;29;20043;-68
2024/01/12 10:00:26;;;;;;;2.90;1.80;;;;;;;6.95;46.79;98908.81;4908144;29;20118;-68
2024/01/12 10:02:56;;;;;;;3.95;1.70;;;;;;;6.97;46.52;98892.41;4915029;29;20499;-70
2024/01/12 10:05:31;;;;;;;3.55;1.55;;;;;;;7.02;46.74;98902.69;4912932;29;20048;-70
2024/01/12 10:08:08;;;;;;;2.13;1.25;;;;;;;6.29;45.92;98834.31;4902037;29;20044;-71
2024/01/12 10:10:34;;;;;;;2.00;1.30;;;;;;;6.98;45.59;98916.53;4916875;29;20048;-69
2024/01/12 10:13:20;;;;;;;4.55;1.40;;;;;;;7.16;45.46;98915.50;4913308;29;20115;-72
2024/01/12 10:15:50;;;;;;;4.72;1.45;;;;;;;5.86;44.61;98901.66;4887199;29;20056;-69
2024/01/12 10:18:22;;;;;;;3.08;1.50;;;;;;;4.47;44.91;98928.47;4915821;29;20473;-69
2024/01/12 10:20:51;;;;;;;3.47;1.70;;;;;;;3.01;45.15;98938.91;4917969;29;20068;-69
2024/01/12 10:23:28;;;;;;;3.40;1.85;;;;;;;1.72;46.01;98915.34;4899492;29;20048;-72
2024/01/12 10:26:20;;;;;;;11.20;2.85;;;;;;;0.88;46.60;98932.09;4898208;29;20040;-69
2024/01/12 10:29:11;;;;;;;3.38;1.77;;;;;;;0.15;47.98;98877.06;4906129;29;20051;-68
2024/01/12 10:32:02;;;;;;;7.45;2.33;;;;;;;-0.34;47.71;98876.97;4885870;29;20072;-71
2024/01/12 10:34:53;;;;;;;4.57;1.67;;;;;;;-0.85;48.01;98975.53;4901072;29;20036;-70
2024/01/12 10:37:22;;;;;;;3.80;1.88;;;;;;;-1.62;48.78;98956.59;4898785;29;20418;-70
2024/01/12 10:40:00;;;;;;;3.97;1.90;;;;;;;-1.99;50.01;98957.34;4913845;29;20106;-71
2024/01/12 10:42:37;;;;;;;4.50;2.00;;;;;;;-2.68;50.28;98889.06;4900933;29;20055;-71
2024/01/12 10:45:33;;;;;;;9.82;3.00;;;;;;;-3.03;50.61;98944.06;4917900;29;20063;-72
2024/01/12 10:48:06;;;;;;;3.33;1.50;;;;;;;-3.67;50.25;98942.78;4913266;29;20452;-72
2024/01/12 10:50:42;;;;;;;4.05;1.70;;;;;;;-3.79;52.23;98964.44;4899389;29;20065;-71
2024/01/12 10:53:20;;;;;;;3.40;1.60;;;;;;;-4.05;50.96;98988.91;4913121;29;20144;-70
2024/01/12 10:55:55;;;;;;;4.20;1.55;;;;;;;-4.71;52.77;98952.59;4913645;29;20093;-71
2024/01/12 10:58:29;;;;;;;5.07;1.52;;;;;;;-5.47;52.56;98903.94;4916418;29;20043;-70
2024/01/12 11:01:37;;;;;;;1.67;1.23;;;;;;;-5.50;53.75;98997.66;4906964;29;20104;-78
2024/01/12 11:04:05;;;;;;;5.22;1.42;;;;;;;-5.65;54.15;99008.00;4918248;29;20050;-77
2024/01/12 11:06:34;;;;;;;3.30;1.90;;;;;;;-6.51;54.41;98903.81;4916040;29;20044;-76
2024/01/12 11:09:06;;;;;;;4.35;2.08;;;;;;;-6.33;53.93;98988.97;4902071;29;20040;-69
2024/01/12 11:11:47;;;;;;;5.38;2.22;;;;;;;-6.75;54.05;98990.47;4916365;29;20475;-70
2024/01/12 11:14:29;;;;;;;5.47;2.25;;;;;;;-7.02;54.90;99000.13;4915460;29;20139;-70
2024/01/12 11:16:59;;;;;;;5.70;2.10;;;;;;;-7.18;55.11;99009.50;4897644;29;20048;-72
2024/01/12 11:19:27;;;;;;;6.55;2.92;;;;;;;-7.44;55.17;99005.69;4912943;29;20070;-72
2024/01/12 11:22:10;;;;;;;3.67;1.90;;;;;;;-7.55;56.01;99007.66;4910249;29;20047;-71
2024/01/12 11:24:42;;;;;;;3.75;2.03;;;;;;;-7.51;56.36;99050.00;4902968;29;20799;-74
2024/01/12 11:27:16;;;;;;;4.53;1.88;;;;;;;-8.20;57.22;98931.97;4900592;29;20051;-73
2024/01/12 11:29:47;;;;;;;4.90;1.95;;;;;;;-7.68;56.55;99036.50;4911763;29;20040;-73
2024/01/12 11:32:17;;;;;;;5.32;1.30;;;;;;;-8.13;57.31;99005.53;4916658;29;20043;-72
2024/01/12 11:34:46;;;;;;;3.10;1.30;;;;;;;-7.79;57.61;99042.63;4898675;29;20036;-71
2024/01/12 11:37:26;;;;;;;3.10;1.27;;;;;;;-8.56;57.99;98924.25;4886870;29;20047;-73
2024/01/12 11:39:57;;;;;;;3.08;1.35;;;;;;;-7.90;57.99;99060.66;4898948;29;20075;-74
2024/01/12 11:42:26;;;;;;;4.45;1.60;;;;;;;-8.86;57.32;98942.00;4917592;29;20522;-74
2024/01/12 11:44:52;;;;;;;6.60;1.90;;;;;;;-8.33;58.08;99068.44;4914755;29;20071;-73
2024/01/12 11:47:21;;;;;;;5.70;2.13;;;;;;;-9.06;57.77;98975.31;4888457;29;20059;-73
2024/01/12 11:49:51;;;;;;;3.38;1.50;;;;;;;-9.37;58.25;98979.50;4896009;29;20050;-72
2024/01/12 11:52:19;;;;;;;;;;;;;;;-8.96;58.77;99073.41;4915190;29;20060;-73